Time;durP1;ratioP1;P1;durP2;ratioP2;P2;SDS_P1;SDS_P2;PMS_P1;PMS_P2;Temp;Humidity;BMP_temperature;BMP_pressure;BME280_temperature;BME280_humidity;BME280_pressure;Samples;Min_cycle;Max_cycle;Signal;HPM_P1;HPM_P2
2021/04/14 00:01:17;;;;;;;19.45;13.02;;;;;;;0.66;72.95;93508.50;2071232;69;20243;-71
2021/04/14 00:03:45;;;;;;;18.55;12.85;;;;;;;0.60;72.40;93500.28;2070723;69;20236;-71
2021/04/14 00:06:12;;;;;;;17.88;11.93;;;;;;;0.44;71.76;93492.97;2071342;69;20535;-71
2021/04/14 00:08:37;;;;;;;19.10;13.15;;;;;;;0.62;72.74;93494.94;2071265;69;20162;-72
2021/04/14 00:11:05;;;;;;;17.80;12.38;;;;;;;0.70;72.07;93492.31;2071487;69;20155;-72
2021/04/14 00:13:40;;;;;;;17.75;12.15;;;;;;;0.55;71.94;93486.50;2071396;69;20619;-72
2021/04/14 00:16:08;;;;;;;16.38;11.38;;;;;;;0.43;71.52;93486.66;2071165;69;20567;-72
2021/04/14 00:18:34;;;;;;;17.25;11.10;;;;;;;0.43;71.00;93486.66;2071354;69;20239;-71
2021/04/14 00:20:59;;;;;;;15.43;10.77;;;;;;;0.41;71.05;93491.22;2071235;69;20140;-71
2021/04/14 00:23:25;;;;;;;13.90;9.88;;;;;;;0.42;69.93;93487.22;2071290;69;20154;-71
2021/04/14 00:25:52;;;;;;;14.68;10.30;;;;;;;0.41;69.43;93485.69;2071456;69;20192;-70
2021/04/14 00:28:21;;;;;;;14.55;10.07;;;;;;;0.32;69.55;93491.63;2067946;69;20615;-73
2021/04/14 00:30:49;;;;;;;14.48;10.07;;;;;;;0.19;68.99;93495.09;2068063;69;20128;-71
2021/04/14 00:33:16;;;;;;;17.00;11.07;;;;;;;0.36;70.82;93492.81;2071536;69;20595;-71
2021/04/14 00:35:41;;;;;;;18.95;11.93;;;;;;;0.43;70.47;93489.44;2071494;69;20194;-72
2021/04/14 00:38:08;;;;;;;17.90;12.25;;;;;;;0.71;70.36;93494.56;2071393;69;20176;-71
2021/04/14 00:40:43;;;;;;;20.30;14.15;;;;;;;0.21;73.91;93495.28;2071244;69;20140;-72
2021/04/14 00:43:11;;;;;;;20.38;13.15;;;;;;;0.15;74.31;93491.88;2071405;69;20154;-71
2021/04/14 00:45:37;;;;;;;20.42;14.48;;;;;;;0.01;74.53;93488.28;2071252;69;20144;-70
2021/04/14 00:48:03;;;;;;;18.80;12.98;;;;;;;0.45;73.07;93492.44;2071374;69;20224;-71
2021/04/14 00:50:29;;;;;;;18.23;12.93;;;;;;;0.54;72.73;93491.28;2071391;69;20186;-71
2021/04/14 00:52:55;;;;;;;19.88;13.57;;;;;;;0.24;73.80;93497.03;2071215;69;20195;-73
2021/04/14 00:55:24;;;;;;;25.63;14.43;;;;;;;0.41;73.38;93486.47;2071297;69;20133;-72
2021/04/14 00:57:50;;;;;;;20.92;14.10;;;;;;;0.31;74.12;93487.34;2071423;69;20151;-71
2021/04/14 01:00:22;;;;;;;20.40;13.57;;;;;;;0.75;72.21;93481.16;2071112;69;20179;-72
2021/04/14 01:02:47;;;;;;;19.92;13.70;;;;;;;0.62;72.34;93483.13;2071230;69;20651;-71
2021/04/14 01:05:16;;;;;;;19.10;13.05;;;;;;;0.64;71.89;93477.78;2071245;69;20143;-71
2021/04/14 01:07:41;;;;;;;20.20;13.23;;;;;;;0.60;72.80;93480.88;2071168;69;20160;-70
2021/04/14 01:10:07;;;;;;;22.13;14.05;;;;;;;0.61;73.04;93473.31;2067923;69;20152;-72
2021/04/14 01:12:36;;;;;;;20.45;13.90;;;;;;;0.52;72.88;93482.78;2071286;69;20255;-73
2021/04/14 01:15:05;;;;;;;20.40;14.32;;;;;;;0.48;73.23;93480.28;2071385;69;20179;-72
2021/04/14 01:17:31;;;;;;;21.95;14.10;;;;;;;0.83;72.01;93481.28;2071376;69;20164;-71
2021/04/14 01:19:56;;;;;;;20.60;13.18;;;;;;;0.76;71.79;93473.56;2071369;69;20147;-72
2021/04/14 01:22:22;;;;;;;18.10;12.48;;;;;;;0.45;72.23;93480.59;2071303;69;20178;-71
2021/04/14 01:24:47;;;;;;;21.20;14.40;;;;;;;-0.08;75.54;93469.25;2071115;69;20144;-72
2021/04/14 01:27:13;;;;;;;20.85;14.00;;;;;;;0.17;75.63;93472.69;2071162;69;20180;-71
2021/04/14 01:29:39;;;;;;;20.63;13.93;;;;;;;0.60;73.24;93477.38;2071233;69;20128;-71
2021/04/14 01:32:05;;;;;;;20.75;14.23;;;;;;;0.49;73.58;93467.94;2071256;69;20144;-71
2021/04/14 01:34:31;;;;;;;20.25;13.27;;;;;;;0.71;73.31;93471.66;2071311;69;20172;-72
2021/04/14 01:36:56;;;;;;;19.83;13.75;;;;;;;0.68;73.11;93467.88;2071292;69;20245;-71
2021/04/14 01:39:22;;;;;;;20.05;13.57;;;;;;;0.73;72.32;93466.31;2071311;69;20160;-71
2021/04/14 01:41:47;;;;;;;21.25;13.98;;;;;;;0.73;73.12;93469.84;2071752;69;20579;-72
2021/04/14 01:44:14;;;;;;;20.65;14.07;;;;;;;0.79;72.74;93458.66;2071609;69;20152;-73
2021/04/14 01:46:43;;;;;;;19.77;13.27;;;;;;;0.93;71.50;93462.22;2071605;69;20147;-71
2021/04/14 01:49:12;;;;;;;22.10;14.02;;;;;;;0.83;72.34;93450.78;2071676;69;20152;-71
2021/04/14 01:51:38;;;;;;;20.50;13.95;;;;;;;0.75;71.93;93458.22;2071690;69;20148;-71
2021/04/14 01:54:04;;;;;;;20.20;13.65;;;;;;;0.74;72.06;93446.41;2071674;69;20155;-72
2021/04/14 01:56:30;;;;;;;19.80;13.65;;;;;;;0.84;71.90;93446.00;2071590;69;20132;-73
2021/04/14 01:58:56;;;;;;;19.70;14.05;;;;;;;0.89;71.21;93453.47;2071592;69;20210;-73
2021/04/14 02:01:22;;;;;;;21.25;13.90;;;;;;;0.61;72.25;93448.38;2071575;69;20176;-73
2021/04/14 02:03:48;;;;;;;21.27;14.15;;;;;;;0.80;71.93;93442.78;2068310;69;20143;-72
2021/04/14 02:06:16;;;;;;;21.17;14.43;;;;;;;0.87;71.22;93444.91;2071719;69;20144;-71
2021/04/14 02:08:43;;;;;;;18.25;12.88;;;;;;;0.84;71.56;93437.69;2071753;69;20168;-71
2021/04/14 02:11:10;;;;;;;21.10;13.95;;;;;;;0.69;71.58;93441.69;2071851;69;20239;-74
2021/04/14 02:13:39;;;;;;;22.40;13.10;;;;;;;0.56;71.67;93440.91;2071910;69;20597;-73
2021/04/14 02:16:07;;;;;;;19.23;12.70;;;;;;;0.61;70.61;93440.81;2071839;69;20140;-73
2021/04/14 02:18:32;;;;;;;17.10;11.88;;;;;;;0.60;69.47;93438.59;2071984;69;20166;-73
2021/04/14 02:21:00;;;;;;;17.65;12.85;;;;;;;0.51;69.95;93439.72;2071907;69;20159;-74
2021/04/14 02:23:30;;;;;;;17.48;12.50;;;;;;;0.39;70.36;93441.91;2068534;69;20160;-74
2021/04/14 02:26:02;;;;;;;17.70;12.60;;;;;;;0.48;70.56;93441.50;2071881;69;20183;-72
2021/04/14 02:28:28;;;;;;;19.17;12.88;;;;;;;0.52;70.95;93443.97;2071909;69;20152;-74
2021/04/14 02:30:54;;;;;;;20.08;13.23;;;;;;;0.30;70.76;93444.31;2071820;69;20131;-74
2021/04/14 02:33:20;;;;;;;18.38;13.07;;;;;;;0.14;71.35;93446.81;2071892;69;20247;-73
2021/04/14 02:35:47;;;;;;;17.20;11.80;;;;;;;0.20;70.71;93443.97;2071883;69;20156;-73
2021/04/14 02:38:13;;;;;;;19.30;13.35;;;;;;;0.23;71.07;93449.19;2071782;69;20233;-71
2021/04/14 02:40:39;;;;;;;19.48;13.43;;;;;;;0.30;71.20;93445.06;2071983;69;20235;-73
2021/04/14 02:43:05;;;;;;;19.60;13.02;;;;;;;0.34;71.50;93442.75;2068483;69;20606;-72
2021/04/14 02:45:34;;;;;;;19.92;13.23;;;;;;;0.42;71.28;93448.44;2071753;69;20517;-74
2021/04/14 02:48:00;;;;;;;22.17;13.45;;;;;;;0.22;71.24;93441.41;2071888;69;20180;-73
2021/04/14 02:50:26;;;;;;;17.85;12.73;;;;;;;0.29;70.76;93434.53;2071852;69;20144;-72
2021/04/14 02:52:52;;;;;;;16.73;11.85;;;;;;;0.33;70.68;93437.72;2071846;69;20140;-74
2021/04/14 02:55:19;;;;;;;16.92;11.57;;;;;;;0.52;70.00;93449.53;2071887;69;20136;-73
2021/04/14 02:57:46;;;;;;;15.90;10.63;;;;;;;0.49;68.90;93440.22;2065727;69;20542;-74
2021/04/14 03:00:12;;;;;;;14.77;10.00;;;;;;;0.53;68.67;93442.69;2071773;69;20140;-72
2021/04/14 03:02:38;;;;;;;13.48;9.70;;;;;;;0.34;69.11;93442.75;2071795;69;20647;-74
2021/04/14 03:05:06;;;;;;;14.38;10.48;;;;;;;0.44;68.32;93441.06;2071942;69;20148;-72
2021/04/14 03:07:32;;;;;;;14.45;10.45;;;;;;;0.46;69.31;93443.31;2071808;69;20175;-73
2021/04/14 03:09:58;;;;;;;15.77;11.32;;;;;;;0.59;68.60;93432.25;2071860;69;20580;-74
2021/04/14 03:12:23;;;;;;;16.58;11.05;;;;;;;0.60;68.27;93430.28;2071936;69;20144;-74
2021/04/14 03:14:49;;;;;;;14.52;10.05;;;;;;;0.54;68.08;93421.28;2071787;69;20203;-75
2021/04/14 03:17:15;;;;;;;15.70;10.82;;;;;;;0.35;68.77;93424.84;2071922;69;20159;-74
2021/04/14 03:19:41;;;;;;;13.70;9.43;;;;;;;0.53;68.98;93428.09;2071805;69;20140;-74
2021/04/14 03:22:07;;;;;;;15.88;10.13;;;;;;;0.52;68.99;93423.84;2071747;69;20599;-74
2021/04/14 03:24:33;;;;;;;16.65;10.85;;;;;;;0.63;68.81;93427.16;2068481;69;20152;-73
2021/04/14 03:26:59;;;;;;;13.80;9.73;;;;;;;0.71;67.88;93422.50;2071781;69;20140;-74
2021/04/14 03:29:24;;;;;;;15.32;10.25;;;;;;;0.70;67.63;93423.78;2071883;69;20611;-73
2021/04/14 03:31:50;;;;;;;16.20;10.30;;;;;;;0.81;67.43;93427.63;2071771;69;20146;-74
2021/04/14 03:34:15;;;;;;;16.73;10.40;;;;;;;0.72;67.24;93424.00;2068449;69;20116;-73
2021/04/14 03:36:41;;;;;;;20.63;13.07;;;;;;;0.71;67.14;93414.19;2071772;69;20237;-72
2021/04/14 03:39:07;;;;;;;21.40;13.55;;;;;;;0.27;68.29;93414.91;2071664;69;20152;-74
2021/04/14 03:41:34;;;;;;;24.05;14.02;;;;;;;0.32;68.78;93412.06;2068632;69;20148;-73
2021/04/14 03:44:00;;;;;;;27.38;15.70;;;;;;;0.29;70.27;93418.66;2068404;69;20155;-74
2021/04/14 03:46:26;;;;;;;25.80;14.80;;;;;;;0.59;68.68;93412.13;2071096;69;20170;-73
2021/04/14 03:48:52;;;;;;;22.83;13.68;;;;;;;0.64;69.15;93412.06;2071874;69;20140;-74
2021/04/14 03:51:20;;;;;;;25.90;15.40;;;;;;;0.67;68.77;93416.53;2071838;69;20155;-74
2021/04/14 03:53:46;;;;;;;24.38;15.20;;;;;;;0.75;69.15;93405.56;2071845;69;20239;-72
2021/04/14 03:56:15;;;;;;;20.13;13.75;;;;;;;0.79;68.99;93413.56;2071712;69;20155;-73
2021/04/14 03:58:45;;;;;;;22.13;13.30;;;;;;;0.69;69.35;93413.25;2071731;69;20140;-73
2021/04/14 04:01:21;;;;;;;18.85;12.27;;;;;;;0.34;69.40;93411.53;2071595;69;20128;-74
2021/04/14 04:03:46;;;;;;;20.42;12.80;;;;;;;0.41;68.87;93408.91;2071610;69;20148;-74
2021/04/14 04:06:12;;;;;;;17.77;12.18;;;;;;;0.53;68.00;93406.69;2071716;69;20226;-72
2021/04/14 04:08:38;;;;;;;16.30;10.95;;;;;;;0.45;67.81;93403.78;2071695;69;20176;-72
2021/04/14 04:11:05;;;;;;;15.68;11.18;;;;;;;0.42;67.59;93404.84;2071824;69;20140;-72
2021/04/14 04:13:32;;;;;;;14.50;10.45;;;;;;;0.29;66.82;93415.13;2071821;69;20291;-75
2021/04/14 04:15:58;;;;;;;13.63;9.57;;;;;;;0.21;67.15;93410.19;2068262;69;20151;-72
2021/04/14 04:18:23;;;;;;;14.65;9.98;;;;;;;0.21;67.08;93406.69;2071656;69;20136;-73
2021/04/14 04:20:49;;;;;;;17.45;10.20;;;;;;;0.10;66.96;93404.09;2068325;69;20172;-72
2021/04/14 04:23:15;;;;;;;17.63;11.63;;;;;;;0.10;66.90;93406.84;2071611;69;20172;-72
2021/04/14 04:25:41;;;;;;;14.93;9.93;;;;;;;0.04;66.70;93408.94;2071636;69;20144;-71
2021/04/14 04:28:13;;;;;;;19.48;11.20;;;;;;;0.17;66.66;93404.22;2071610;69;20183;-72
2021/04/14 04:30:39;;;;;;;16.23;10.85;;;;;;;0.24;66.24;93403.59;2068349;69;20608;-71
2021/04/14 04:33:06;;;;;;;17.25;12.20;;;;;;;0.17;66.18;93415.28;2071794;69;20144;-70
2021/04/14 04:35:33;;;;;;;19.35;12.95;;;;;;;0.30;66.03;93413.84;2071724;69;20148;-70
2021/04/14 04:38:00;;;;;;;18.15;11.23;;;;;;;0.33;65.48;93415.56;2071483;69;20156;-72
2021/04/14 04:40:26;;;;;;;16.02;10.80;;;;;;;0.21;66.05;93414.97;2071576;69;20228;-72
2021/04/14 04:42:52;;;;;;;21.75;12.20;;;;;;;0.19;67.33;93417.53;2071570;69;20128;-73
2021/04/14 04:45:21;;;;;;;14.50;9.88;;;;;;;0.13;67.07;93422.41;2071589;69;20136;-73
2021/04/14 04:47:47;;;;;;;14.23;9.80;;;;;;;0.13;66.91;93425.16;2071590;69;20247;-73
2021/04/14 04:50:14;;;;;;;23.88;17.55;;;;;;;0.25;66.25;93413.41;2071535;69;20244;-73
2021/04/14 04:52:41;;;;;;;18.83;11.98;;;;;;;0.47;65.13;93415.09;2071591;69;20148;-73
2021/04/14 04:55:09;;;;;;;15.85;11.32;;;;;;;0.52;65.01;93418.28;2071526;69;20198;-71
2021/04/14 04:57:34;;;;;;;16.13;10.60;;;;;;;0.53;66.12;93419.78;2071527;69;20133;-73
2021/04/14 05:00:00;;;;;;;16.00;10.38;;;;;;;0.54;65.70;93419.25;2068084;69;20611;-73
2021/04/14 05:02:26;;;;;;;16.75;11.02;;;;;;;0.53;66.27;93419.78;2071506;69;20693;-73
2021/04/14 05:04:53;;;;;;;23.52;14.35;;;;;;;0.53;65.16;93406.69;2071521;69;20800;-73
2021/04/14 05:07:19;;;;;;;21.58;13.30;;;;;;;0.60;65.84;93405.31;2071569;69;20137;-74
2021/04/14 05:09:45;;;;;;;17.02;11.88;;;;;;;0.54;65.76;93402.63;2071546;69;20201;-72
2021/04/14 05:12:10;;;;;;;15.85;11.10;;;;;;;0.45;65.81;93412.09;2071640;69;20145;-71
2021/04/14 05:14:36;;;;;;;16.77;11.25;;;;;;;0.46;66.01;93410.81;2071914;69;20145;-72
2021/04/14 05:17:02;;;;;;;18.30;10.90;;;;;;;0.28;66.85;93411.63;2071966;69;20136;-73
2021/04/14 05:19:27;;;;;;;18.88;11.05;;;;;;;0.23;66.14;93409.69;2072022;69;20493;-73
2021/04/14 05:21:53;;;;;;;18.83;11.50;;;;;;;0.36;66.82;93408.97;2072021;69;20180;-72
2021/04/14 05:24:19;;;;;;;16.75;10.65;;;;;;;0.29;66.76;93420.66;2072043;69;20155;-73
2021/04/14 05:26:44;;;;;;;16.65;11.75;;;;;;;0.42;66.73;93420.72;2068688;69;20136;-73
2021/04/14 05:29:10;;;;;;;20.88;12.65;;;;;;;0.44;66.70;93418.91;2072018;69;20152;-74
2021/04/14 05:31:40;;;;;;;20.48;12.13;;;;;;;0.44;66.26;93418.91;2072013;69;20261;-74
2021/04/14 05:34:06;;;;;;;18.95;11.25;;;;;;;0.42;66.10;93423.50;2071993;69;20588;-74
2021/04/14 05:36:32;;;;;;;17.00;11.32;;;;;;;0.46;65.74;93427.44;2071973;69;20665;-74
2021/04/14 05:38:58;;;;;;;15.30;11.02;;;;;;;0.49;65.68;93433.94;2071884;69;20631;-74
2021/04/14 05:41:24;;;;;;;15.98;10.48;;;;;;;0.46;65.57;93427.44;2072041;69;20140;-74
2021/04/14 05:43:50;;;;;;;16.75;10.25;;;;;;;0.43;65.72;93425.72;2071948;69;20628;-72
2021/04/14 05:46:18;;;;;;;14.77;9.93;;;;;;;0.60;65.84;93428.25;2071861;69;20240;-73
2021/04/14 05:48:46;;;;;;;16.15;10.30;;;;;;;0.29;65.71;93431.75;2072003;69;20197;-73
2021/04/14 05:51:18;;;;;;;19.60;11.50;;;;;;;0.46;66.26;93435.75;2071936;69;20144;-73
2021/04/14 05:53:46;;;;;;;18.95;11.80;;;;;;;0.58;66.50;93441.13;2071933;69;20509;-73
2021/04/14 05:56:13;;;;;;;19.65;11.48;;;;;;;0.67;66.55;93443.50;2071977;69;20133;-74
2021/04/14 05:58:39;;;;;;;23.13;12.40;;;;;;;0.80;66.43;93448.31;2068681;69;20551;-71
2021/04/14 06:01:06;;;;;;;22.25;13.07;;;;;;;0.66;67.21;93439.97;2068559;69;20171;-72
2021/04/14 06:03:32;;;;;;;23.85;13.75;;;;;;;0.06;69.18;93450.72;2071933;69;20148;-71
2021/04/14 06:05:59;;;;;;;25.05;14.20;;;;;;;0.08;69.99;93439.84;2071993;69;20140;-72
2021/04/14 06:08:26;;;;;;;19.98;13.23;;;;;;;0.34;69.41;93448.28;2071932;69;20699;-73
2021/04/14 06:10:52;;;;;;;23.25;14.82;;;;;;;0.40;68.57;93443.38;2071870;69;20205;-73
2021/04/14 06:13:19;;;;;;;26.85;14.90;;;;;;;0.56;69.10;93441.66;2071842;69;20286;-73
2021/04/14 06:15:45;;;;;;;26.38;13.73;;;;;;;0.87;67.85;93444.91;2071769;69;20148;-73
2021/04/14 06:18:10;;;;;;;22.73;14.60;;;;;;;0.98;67.10;93453.06;2071900;69;20209;-73
2021/04/14 06:20:36;;;;;;;25.42;14.68;;;;;;;1.10;66.75;93448.03;2071888;69;20586;-74
2021/04/14 06:23:09;;;;;;;27.65;14.60;;;;;;;1.10;66.86;93450.81;2071893;69;20140;-74
2021/04/14 06:25:40;;;;;;;28.58;16.00;;;;;;;0.80;67.62;93448.31;2071939;69;20144;-74
2021/04/14 06:28:06;;;;;;;29.27;15.88;;;;;;;1.28;66.48;93444.44;2071895;69;20184;-74
2021/04/14 06:30:38;;;;;;;27.48;14.82;;;;;;;1.25;66.14;93446.25;2071804;69;20132;-74
2021/04/14 06:33:08;;;;;;;25.80;13.75;;;;;;;1.33;64.79;93446.38;2071868;69;20144;-74
2021/04/14 06:35:33;;;;;;;24.17;14.43;;;;;;;1.36;64.91;93450.84;2071852;69;20148;-74
2021/04/14 06:38:01;;;;;;;27.00;15.57;;;;;;;1.59;64.80;93431.00;2071822;69;20512;-74
2021/04/14 06:43:17;;;;;;;31.00;14.85;;;;;;;1.76;64.52;93446.03;2071856;69;20144;-74
2021/04/14 06:45:56;;;;;;;26.50;16.48;;;;;;;2.42;66.10;93447.91;2071739;69;20160;-74
2021/04/14 06:48:44;;;;;;;41.00;22.30;;;;;;;2.49;64.96;93450.03;2072119;69;20246;-75
2021/04/14 06:51:20;;;;;;;33.65;19.73;;;;;;;2.93;66.35;93444.72;2071821;69;20516;-75
2021/04/14 06:54:03;;;;;;;41.80;24.77;;;;;;;3.42;63.60;93451.56;2072016;69;20200;-76
2021/04/14 06:56:31;;;;;;;27.48;15.38;;;;;;;3.72;62.09;93448.97;2072006;69;20136;-75
2021/04/14 06:59:05;;;;;;;21.45;12.68;;;;;;;4.69;59.00;93454.00;2071836;69;20148;-76
2021/04/14 07:01:41;;;;;;;20.13;12.80;;;;;;;4.12;58.53;93445.06;2071737;69;20136;-76
2021/04/14 07:04:22;;;;;;;20.40;12.68;;;;;;;4.90;56.09;93448.25;2071865;69;20148;-76
2021/04/14 07:06:48;;;;;;;20.92;12.55;;;;;;;4.83;55.20;93441.38;2071981;69;20144;-76
2021/04/14 07:09:37;;;;;;;14.75;9.68;;;;;;;5.49;50.73;93439.72;2071836;69;20144;-77
2021/04/14 07:12:08;;;;;;;15.60;10.27;;;;;;;4.91;50.92;93446.25;2071297;69;20148;-76
2021/04/14 07:14:35;;;;;;;20.27;10.98;;;;;;;5.47;53.05;93441.59;2072140;69;20124;-76
2021/04/14 07:17:18;;;;;;;16.58;11.25;;;;;;;6.14;50.02;93441.28;2071664;69;20144;-76
2021/04/14 07:20:16;;;;;;;17.58;9.82;;;;;;;6.47;47.47;93447.69;2071820;69;20177;-77
2021/04/14 07:22:56;;;;;;;15.77;9.10;;;;;;;7.42;45.24;93438.28;2071887;69;20527;-76
2021/04/14 07:25:30;;;;;;;16.10;10.00;;;;;;;6.86;46.50;93438.50;2071895;69;20144;-76
2021/04/14 07:28:07;;;;;;;11.73;8.10;;;;;;;7.73;42.49;93447.19;2071845;69;20136;-76
2021/04/14 07:30:48;;;;;;;13.75;8.98;;;;;;;8.12;42.19;93439.88;2071711;69;20172;-77
2021/04/14 07:33:22;;;;;;;13.95;9.38;;;;;;;7.47;43.99;93440.16;2071925;69;20152;-75
2021/04/14 07:36:02;;;;;;;10.40;7.20;;;;;;;7.52;39.99;93433.56;2071767;69;20136;-75
2021/04/14 07:38:46;;;;;;;10.45;7.05;;;;;;;8.62;38.83;93444.56;2071594;69;20601;-76
2021/04/14 07:41:38;;;;;;;10.35;7.10;;;;;;;7.09;39.95;93435.56;2072899;69;20183;-77
2021/04/14 07:44:11;;;;;;;9.55;7.00;;;;;;;7.59;40.06;93435.53;2067655;69;20259;-77
2021/04/14 07:46:40;;;;;;;11.45;7.45;;;;;;;7.02;38.25;93432.81;2071709;69;20136;-77
2021/04/14 07:49:06;;;;;;;9.20;6.90;;;;;;;8.45;37.74;93436.91;2071740;69;20147;-77
2021/04/14 07:51:32;;;;;;;7.85;6.32;;;;;;;8.87;35.79;93431.13;2071800;69;20623;-77
2021/04/14 07:54:08;;;;;;;8.90;6.22;;;;;;;8.67;35.47;93426.00;2071754;69;20140;-75
2021/04/14 07:56:47;;;;;;;8.88;6.95;;;;;;;7.96;35.99;93429.41;2071858;69;20231;-74
2021/04/14 07:59:37;;;;;;;8.65;6.47;;;;;;;7.47;36.18;93422.56;2071696;69;20706;-77
2021/04/14 08:02:24;;;;;;;10.23;6.10;;;;;;;9.80;34.27;93428.38;2071566;69;20183;-75
2021/04/14 08:04:51;;;;;;;8.02;6.85;;;;;;;9.33;33.63;93430.44;2071632;69;20140;-77
2021/04/14 08:07:20;;;;;;;9.57;7.35;;;;;;;10.29;36.38;93432.00;2068536;69;20187;-74
2021/04/14 08:09:52;;;;;;;8.88;7.25;;;;;;;10.55;34.66;93421.22;2071698;69;20145;-76
2021/04/14 08:12:33;;;;;;;8.43;6.72;;;;;;;10.20;34.36;93427.09;2071674;69;20164;-75
2021/04/14 08:15:14;;;;;;;9.38;7.20;;;;;;;11.16;35.23;93420.63;2071552;69;20163;-75
2021/04/14 08:17:42;;;;;;;8.05;6.72;;;;;;;11.33;35.09;93428.13;2071782;69;20203;-76
2021/04/14 08:20:33;;;;;;;9.38;7.30;;;;;;;11.02;34.14;93424.53;2071665;69;20180;-74
2021/04/14 08:23:27;;;;;;;11.00;6.93;;;;;;;12.03;33.17;93432.88;2071464;69;20148;-75
2021/04/14 08:25:55;;;;;;;8.07;6.70;;;;;;;11.48;33.32;93418.59;2071214;69;20172;-75
2021/04/14 08:28:45;;;;;;;9.77;7.10;;;;;;;12.41;33.27;93421.28;2071668;69;20611;-76
2021/04/14 08:31:20;;;;;;;8.15;6.82;;;;;;;12.09;34.66;93408.59;2071582;69;20148;-77
2021/04/14 08:33:48;;;;;;;7.85;6.35;;;;;;;11.94;32.66;93415.38;2071616;69;20148;-75
2021/04/14 08:36:27;;;;;;;8.20;6.68;;;;;;;12.91;31.56;93411.06;2071617;69;20164;-77
2021/04/14 08:38:53;;;;;;;7.90;6.60;;;;;;;12.42;32.04;93402.28;2071622;69;20865;-77
2021/04/14 08:41:31;;;;;;;8.05;6.68;;;;;;;11.64;30.30;93399.22;2071605;69;20199;-77
2021/04/14 08:44:12;;;;;;;8.73;6.47;;;;;;;9.88;33.28;93398.03;2068203;69;20205;-77
2021/04/14 08:46:40;;;;;;;9.00;5.97;;;;;;;12.05;30.19;93393.47;2071489;69;20155;-77
2021/04/14 08:49:23;;;;;;;9.73;6.50;;;;;;;13.27;28.80;93386.44;2071638;69;20607;-76
2021/04/14 08:51:52;;;;;;;8.55;5.68;;;;;;;13.31;27.95;93386.69;2072285;69;20148;-77
2021/04/14 08:54:25;;;;;;;5.97;5.38;;;;;;;13.32;26.80;93386.09;2072070;69;20155;-76
2021/04/14 08:56:52;;;;;;;6.20;5.30;;;;;;;14.99;25.86;93383.78;2072091;69;20144;-74
2021/04/14 08:59:18;;;;;;;6.10;5.43;;;;;;;13.47;26.75;93385.63;2068755;69;20136;-77
2021/04/14 09:01:44;;;;;;;7.63;5.72;;;;;;;14.16;28.25;93379.75;2072093;69;20504;-77
2021/04/14 09:04:12;;;;;;;9.43;6.00;;;;;;;13.95;26.37;93375.72;2072062;69;20201;-77
2021/04/14 09:06:39;;;;;;;6.20;5.10;;;;;;;14.57;26.82;93374.38;2072084;69;20239;-78
2021/04/14 09:09:08;;;;;;;6.82;5.00;;;;;;;15.38;24.73;93369.56;2072187;69;20158;-79
2021/04/14 09:11:36;;;;;;;7.38;5.05;;;;;;;15.76;24.75;93373.03;2072196;69;20233;-75
2021/04/14 09:14:14;;;;;;;6.70;4.95;;;;;;;15.26;26.24;93371.78;2071612;69;20610;-77
2021/04/14 09:17:00;;;;;;;5.90;5.22;;;;;;;14.94;23.33;93373.56;2075160;69;20140;-77
2021/04/14 09:19:35;;;;;;;6.93;5.05;;;;;;;13.45;26.52;93367.78;2075624;69;20228;-77
2021/04/14 09:22:20;;;;;;;5.10;4.60;;;;;;;13.64;25.82;93370.34;2075158;69;20147;-76
2021/04/14 09:24:57;;;;;;;4.72;4.32;;;;;;;15.14;23.81;93368.28;2075277;69;20194;-76
2021/04/14 09:27:22;;;;;;;6.63;4.88;;;;;;;15.96;23.64;93359.88;2075377;69;20140;-76
2021/04/14 09:29:59;;;;;;;6.93;4.68;;;;;;;15.92;22.67;93353.25;2075187;69;20213;-77
2021/04/14 09:32:53;;;;;;;5.03;4.50;;;;;;;15.16;22.46;93357.03;2075427;69;20193;-75
2021/04/14 09:35:24;;;;;;;;;;;;;;;14.63;22.58;93351.31;2075550;69;20164;-77
2021/04/14 09:37:52;;;;;;;4.30;3.90;;;;;;;11.94;24.67;93338.47;2073610;69;20128;-75
2021/04/14 09:40:34;;;;;;;5.43;4.30;;;;;;;12.35;24.75;93333.38;2068636;69;20133;-76
2021/04/14 09:42:59;;;;;;;6.25;4.63;;;;;;;9.91;26.53;93326.56;2068560;69;20149;-74
2021/04/14 09:45:28;;;;;;;4.88;4.30;;;;;;;12.01;23.67;93326.25;2067833;69;20145;-75
2021/04/14 09:47:55;;;;;;;4.88;4.13;;;;;;;13.86;22.57;93328.50;2068628;69;20546;-75
2021/04/14 09:50:30;;;;;;;6.35;4.20;;;;;;;14.52;22.74;93335.81;2068542;69;20599;-74
2021/04/14 09:53:01;;;;;;;13.20;7.38;;;;;;;14.01;23.20;93327.22;2068590;69;20241;-74
2021/04/14 09:55:37;;;;;;;6.07;4.63;;;;;;;16.40;22.06;93320.88;2068534;69;20144;-75
2021/04/14 09:58:07;;;;;;;5.03;4.38;;;;;;;16.74;20.60;93316.16;2068583;69;20272;-75
2021/04/14 10:00:39;;;;;;;5.00;4.38;;;;;;;16.75;21.48;93322.56;2068405;69;20309;-75
2021/04/14 10:03:28;;;;;;;4.70;4.20;;;;;;;17.43;22.18;93315.03;2068529;69;20664;-75
2021/04/14 10:05:55;;;;;;;8.13;6.20;;;;;;;16.86;21.09;93303.88;2068596;69;20159;-75
2021/04/14 10:08:21;;;;;;;5.80;4.10;;;;;;;17.91;20.22;93305.09;2068660;69;20587;-75
2021/04/14 10:10:49;;;;;;;4.60;4.20;;;;;;;18.48;20.46;93310.34;2068456;69;20156;-75
2021/04/14 10:13:18;;;;;;;4.78;4.20;;;;;;;19.34;19.95;93299.47;2068614;69;20214;-74
2021/04/14 10:15:45;;;;;;;5.13;3.95;;;;;;;18.64;20.28;93298.13;2068260;69;20270;-75
2021/04/14 10:18:22;;;;;;;4.65;3.53;;;;;;;17.74;19.17;93295.13;2068479;69;20162;-76
2021/04/14 10:20:49;;;;;;;4.43;3.70;;;;;;;18.87;17.85;93285.50;2068472;69;20156;-75
2021/04/14 10:23:19;;;;;;;4.20;3.75;;;;;;;18.26;18.16;93287.34;2068390;69;20334;-75
2021/04/14 10:25:45;;;;;;;8.55;3.58;;;;;;;14.08;21.18;93283.03;2067941;69;20153;-75
2021/04/14 10:28:20;;;;;;;3.95;3.55;;;;;;;16.94;19.85;93272.97;2068409;69;20642;-74
2021/04/14 10:31:08;;;;;;;4.55;3.40;;;;;;;19.29;18.86;93283.59;2068378;69;20207;-76
2021/04/14 10:33:40;;;;;;;;;;;;;;;22.81;17.21;93281.66;2068609;69;20229;-75
2021/04/14 10:36:30;;;;;;;3.85;3.08;;;;;;;22.04;16.50;93272.53;2068462;69;20040;-76
2021/04/14 10:39:26;;;;;;;3.30;3.00;;;;;;;23.61;15.42;93281.38;2068486;69;20152;-73
2021/04/14 10:41:56;;;;;;;3.75;3.08;;;;;;;22.96;14.23;93280.66;2068551;69;20228;-74
2021/04/14 10:44:25;;;;;;;8.20;7.40;;;;;;;24.97;13.28;93279.63;2068287;69;20634;-76
2021/04/14 10:47:02;;;;;;;4.07;3.35;;;;;;;24.05;13.41;93280.84;2068263;69;20144;-75
2021/04/14 10:49:32;;;;;;;2.65;2.45;;;;;;;27.48;13.04;93273.94;2068512;69;20133;-80
2021/04/14 10:52:10;;;;;;;3.55;2.80;;;;;;;27.74;12.61;93274.13;2067728;69;20135;-81
2021/04/14 10:54:42;;;;;;;3.53;3.10;;;;;;;25.16;12.31;93263.44;2068766;69;20149;-76
2021/04/14 10:57:12;;;;;;;2.65;2.45;;;;;;;24.93;13.39;93259.44;2068384;69;20599;-79
2021/04/14 10:59:39;;;;;;;3.20;2.90;;;;;;;24.42;13.06;93255.69;2068308;69;20149;-79
2021/04/14 11:02:21;;;;;;;3.03;2.47;;;;;;;29.63;12.02;93264.38;2067843;69;20235;-79
2021/04/14 11:04:48;;;;;;;2.45;2.25;;;;;;;31.62;10.22;93253.13;2068365;69;20141;-77
2021/04/14 11:07:20;;;;;;;4.13;3.72;;;;;;;27.07;11.82;93230.25;2068364;69;20200;-76
2021/04/14 11:09:46;;;;;;;4.93;4.43;;;;;;;23.36;14.15;93224.81;2068487;69;20230;-76
2021/04/14 11:12:16;;;;;;;2.60;2.40;;;;;;;31.08;11.17;93235.41;2067183;69;20149;-76
2021/04/14 11:14:48;;;;;;;2.90;2.08;;;;;;;30.63;11.16;93237.88;2068332;69;20224;-76
2021/04/14 11:17:26;;;;;;;2.60;2.20;;;;;;;31.48;10.08;93241.66;2068325;69;20196;-76
2021/04/14 11:19:53;;;;;;;2.50;2.30;;;;;;;29.11;10.71;93231.81;2067832;69;20187;-77
2021/04/14 11:22:22;;;;;;;3.90;2.20;;;;;;;31.26;10.66;93231.63;2068404;69;20152;-76
2021/04/14 11:24:51;;;;;;;2.95;2.10;;;;;;;31.94;10.43;93231.00;2068345;69;20614;-78
2021/04/14 11:27:24;;;;;;;2.13;2.00;;;;;;;25.42;11.64;93209.03;2068099;69;20148;-76
2021/04/14 11:29:51;;;;;;;2.38;1.90;;;;;;;32.25;9.75;93223.31;2068136;69;20228;-78
2021/04/14 11:32:24;;;;;;;2.42;2.22;;;;;;;23.44;12.83;93213.50;2068284;69;20143;-78
2021/04/14 11:34:59;;;;;;;2.20;2.00;;;;;;;30.84;9.11;93204.34;2068231;69;20231;-76
2021/04/14 11:37:32;;;;;;;2.47;1.80;;;;;;;31.93;9.58;93215.72;2068159;69;20155;-78
2021/04/14 11:40:15;;;;;;;1.77;1.67;;;;;;;32.93;8.79;93205.66;2067292;69;20630;-77
2021/04/14 11:42:58;;;;;;;1.92;1.80;;;;;;;27.62;10.27;93199.53;2067171;69;20702;-77
2021/04/14 11:45:34;;;;;;;3.08;1.70;;;;;;;30.64;9.41;93196.47;2068126;69;20259;-76